Time;durP1;ratioP1;P1;durP2;ratioP2;P2;SDS_P1;SDS_P2;PMS_P1;PMS_P2;Temp;Humidity;BMP_temperature;BMP_pressure;BME280_temperature;BME280_humidity;BME280_pressure;Samples;Min_cycle;Max_cycle;Signal;HPM_P1;HPM_P2
2022/08/20 00:00:16;;;;;;;1.35;0.85;;;18.50;99.90;;;;;;6211475;23;20541;-71
2022/08/20 00:02:49;;;;;;;1.33;0.98;;;18.50;99.90;;;;;;6211183;23;20110;-71
2022/08/20 00:05:21;;;;;;;1.52;0.88;;;18.70;99.90;;;;;;6211988;23;20023;-71
2022/08/20 00:07:47;;;;;;;1.10;0.70;;;18.60;99.90;;;;;;6211785;23;20024;-71
2022/08/20 00:10:12;;;;;;;;;;;18.40;99.90;;;;;;6212794;23;20094;-71
2022/08/20 00:12:43;;;;;;;1.83;0.90;;;18.50;99.90;;;;;;6213090;23;19916;-71
2022/08/20 00:15:11;;;;;;;1.30;0.85;;;18.70;99.90;;;;;;6211735;23;20017;-72
2022/08/20 00:17:37;;;;;;;1.05;0.90;;;18.50;99.90;;;;;;6185342;23;20457;-72
2022/08/20 00:20:10;;;;;;;1.40;0.90;;;18.70;99.90;;;;;;6212118;23;20017;-72
2022/08/20 00:22:36;;;;;;;1.55;1.08;;;18.50;99.90;;;;;;6210642;23;20023;-72
2022/08/20 00:25:05;;;;;;;1.20;0.90;;;18.70;99.90;;;;;;6210333;23;20092;-72
2022/08/20 00:27:31;;;;;;;2.35;0.80;;;18.60;99.90;;;;;;6211078;23;20009;-72
2022/08/20 00:29:56;;;;;;;;;;;18.70;99.90;;;;;;6212483;23;20500;-72
2022/08/20 00:32:22;;;;;;;2.58;1.30;;;18.70;99.90;;;;;;6211078;23;20302;-72
2022/08/20 00:34:48;;;;;;;;;;;18.40;99.90;;;;;;6211899;23;20035;-72
2022/08/20 00:37:14;;;;;;;3.63;1.45;;;18.70;99.90;;;;;;6211288;23;19966;-72
2022/08/20 00:39:39;;;;;;;2.17;1.15;;;18.70;99.90;;;;;;6211362;23;20083;-70
2022/08/20 00:42:05;;;;;;;;;;;18.50;99.90;;;;;;6211325;23;20442;-70
2022/08/20 00:44:32;;;;;;;2.30;1.20;;;18.70;99.90;;;;;;6211522;23;19916;-71
2022/08/20 00:46:57;;;;;;;3.63;1.27;;;18.40;99.90;;;;;;6211325;23;20020;-70
2022/08/20 00:49:25;;;;;;;;;;;18.50;99.90;;;;;;6212488;23;20025;-70
2022/08/20 00:51:51;;;;;;;;;;;18.40;99.90;;;;;;6211124;23;19943;-70
2022/08/20 00:54:25;;;;;;;2.70;1.30;;;18.40;99.90;;;;;;6186146;23;20026;-70
2022/08/20 00:57:19;;;;;;;2.28;1.25;;;18.60;99.90;;;;;;6211133;23;20013;-71
2022/08/20 00:59:48;;;;;;;2.58;1.50;;;18.60;99.90;;;;;;6194892;23;20017;-71
2022/08/20 01:02:16;;;;;;;2.03;1.33;;;18.50;99.90;;;;;;6209638;23;20024;-71
2022/08/20 01:04:46;;;;;;;2.88;1.40;;;18.50;99.90;;;;;;6184081;23;20021;-71
2022/08/20 01:07:11;;;;;;;2.83;1.30;;;18.40;99.90;;;;;;6210472;23;20027;-71
2022/08/20 01:09:37;;;;;;;;;;;18.30;99.90;;;;;;6210864;23;20108;-71
2022/08/20 01:12:05;;;;;;;2.00;1.50;;;18.20;99.90;;;;;;6185698;23;19938;-71
2022/08/20 01:14:38;;;;;;;4.53;1.73;;;18.10;99.90;;;;;;6211637;23;20023;-71
2022/08/20 01:17:07;;;;;;;3.75;1.52;;;18.30;99.90;;;;;;6209632;23;20046;-71
2022/08/20 01:19:39;;;;;;;2.47;1.60;;;18.10;99.90;;;;;;6210418;23;20445;-71
2022/08/20 01:23:25;;;;;;;3.20;1.50;;;18.20;99.90;;;;;;6184838;23;20009;-70
2022/08/20 01:25:03;;;;;;;3.00;1.60;;;18.20;99.90;;;;;;6210479;23;20074;-71
2022/08/20 01:27:30;;;;;;;2.38;1.33;;;18.00;99.90;;;;;;6212731;23;20024;-70
2022/08/20 01:29:57;;;;;;;1.80;1.40;;;18.00;99.90;;;;;;6210022;23;20469;-71
2022/08/20 01:32:23;;;;;;;5.15;1.83;;;17.90;99.90;;;;;;6212405;23;20095;-71
2022/08/20 01:34:49;;;;;;;;;;;17.90;99.90;;;;;;6186258;23;20056;-70
2022/08/20 01:37:14;;;;;;;3.05;1.50;;;18.10;99.90;;;;;;6184984;23;20245;-71
2022/08/20 01:39:40;;;;;;;2.35;1.10;;;17.90;99.90;;;;;;6211506;23;20075;-71
2022/08/20 01:42:25;;;;;;;;;;;17.80;99.90;;;;;;6185518;23;20012;-71
2022/08/20 01:44:51;;;;;;;2.88;1.40;;;17.90;99.90;;;;;;6209327;23;20390;-71
2022/08/20 01:47:35;;;;;;;3.38;1.70;;;17.70;99.90;;;;;;6210455;23;20087;-71
2022/08/20 01:50:19;;;;;;;2.28;1.40;;;17.90;99.90;;;;;;6209750;23;20020;-72
2022/08/20 01:52:58;;;;;;;2.97;1.50;;;17.70;99.90;;;;;;6210655;23;20020;-72
2022/08/20 01:55:26;;;;;;;2.95;1.48;;;17.60;99.90;;;;;;6211382;23;20021;-72
2022/08/20 01:57:52;;;;;;;2.60;1.30;;;17.80;99.90;;;;;;6212636;23;20017;-70
2022/08/20 02:00:21;;;;;;;2.20;1.40;;;17.50;99.90;;;;;;6187372;23;20020;-71
2022/08/20 02:02:47;;;;;;;2.08;1.20;;;17.50;99.90;;;;;;6212204;23;20435;-71
2022/08/20 02:05:12;;;;;;;;;;;17.60;99.90;;;;;;6211934;23;20103;-71
2022/08/20 02:07:38;;;;;;;2.35;1.30;;;17.70;99.90;;;;;;6215461;23;19915;-71
2022/08/20 02:10:05;;;;;;;;;;;17.50;99.90;;;;;;6217903;23;20110;-71
2022/08/20 02:12:31;;;;;;;3.03;1.38;;;17.50;99.90;;;;;;6217161;23;19986;-71
2022/08/20 02:14:57;;;;;;;;;;;17.40;99.90;;;;;;6218416;23;20318;-70
2022/08/20 02:17:25;;;;;;;2.78;1.15;;;17.50;99.90;;;;;;6217528;23;19937;-71
2022/08/20 02:20:09;;;;;;;2.05;1.20;;;17.50;99.90;;;;;;6217811;23;20020;-72
2022/08/20 02:22:48;;;;;;;2.42;1.40;;;17.30;99.90;;;;;;6217686;23;20016;-71
2022/08/20 02:25:15;;;;;;;1.95;1.30;;;17.40;99.90;;;;;;6216744;23;20023;-70
2022/08/20 02:27:45;;;;;;;1.77;0.90;;;17.20;99.90;;;;;;6217797;23;20024;-71
2022/08/20 02:30:19;;;;;;;1.40;1.00;;;17.40;99.90;;;;;;6244802;23;20012;-71
2022/08/20 02:32:46;;;;;;;1.92;1.10;;;17.20;99.90;;;;;;6244285;23;20081;-70
2022/08/20 02:35:12;;;;;;;2.67;1.30;;;17.10;99.90;;;;;;6216800;23;20615;-70
2022/08/20 02:37:40;;;;;;;2.58;1.58;;;17.20;99.90;;;;;;6216986;23;20015;-71
2022/08/20 02:40:09;;;;;;;3.83;1.55;;;17.10;99.90;;;;;;6217450;23;20441;-71
2022/08/20 02:42:35;;;;;;;2.28;1.20;;;17.20;99.90;;;;;;6216077;23;20342;-71
2022/08/20 02:45:01;;;;;;;;;;;17.00;99.90;;;;;;6217873;23;20015;-71
2022/08/20 02:47:27;;;;;;;1.38;0.82;;;17.10;99.90;;;;;;6216788;23;19915;-70
2022/08/20 02:49:53;;;;;;;3.97;1.20;;;16.90;99.90;;;;;;6217442;23;20097;-70
2022/08/20 02:52:20;;;;;;;1.25;0.90;;;17.00;99.90;;;;;;6217130;23;20464;-71
2022/08/20 02:54:48;;;;;;;2.22;0.90;;;17.00;99.90;;;;;;6216147;23;20017;-71
2022/08/20 02:57:19;;;;;;;1.52;0.90;;;17.00;99.90;;;;;;6191341;23;20020;-71
2022/08/20 02:59:48;;;;;;;0.93;0.80;;;16.90;99.90;;;;;;6216497;23;20077;-71
2022/08/20 03:02:14;;;;;;;0.90;0.60;;;16.90;99.90;;;;;;6216174;23;20264;-71
2022/08/20 03:04:41;;;;;;;0.95;0.70;;;16.70;99.90;;;;;;6217068;23;20073;-71
2022/08/20 03:07:09;;;;;;;0.60;0.60;;;16.70;99.90;;;;;;6215315;23;20045;-71
2022/08/20 03:09:35;;;;;;;1.25;0.73;;;16.60;99.90;;;;;;6216809;23;20323;-71
2022/08/20 03:12:02;;;;;;;2.42;0.90;;;16.80;99.90;;;;;;6215568;23;20020;-71
2022/08/20 03:14:27;;;;;;;0.93;0.60;;;16.70;99.90;;;;;;6243719;23;20024;-71
2022/08/20 03:16:54;;;;;;;1.65;0.80;;;16.80;99.90;;;;;;6243135;23;20395;-71
2022/08/20 03:19:20;;;;;;;1.73;0.73;;;16.60;99.90;;;;;;6215640;23;20503;-71
2022/08/20 03:21:45;;;;;;;0.73;0.55;;;16.60;99.90;;;;;;6216804;23;20020;-70
2022/08/20 03:24:11;;;;;;;1.00;0.70;;;16.50;99.90;;;;;;6216592;23;20446;-70
2022/08/20 03:26:37;;;;;;;;;;;16.70;99.90;;;;;;6216452;23;20080;-69
2022/08/20 03:29:03;;;;;;;1.50;1.05;;;16.70;99.90;;;;;;6216547;23;19919;-71
2022/08/20 03:31:29;;;;;;;1.10;0.70;;;16.60;99.90;;;;;;6216128;23;20054;-71
2022/08/20 03:33:55;;;;;;;1.23;0.68;;;16.50;99.90;;;;;;6191337;23;20020;-70
2022/08/20 03:36:22;;;;;;;0.82;0.50;;;16.60;99.90;;;;;;6216721;23;20024;-70
2022/08/20 03:38:48;;;;;;;1.17;0.60;;;16.60;99.90;;;;;;6217337;23;20015;-70
2022/08/20 03:41:14;;;;;;;0.57;0.40;;;16.60;99.90;;;;;;6243817;23;20023;-71
2022/08/20 03:43:40;;;;;;;0.55;0.32;;;16.40;99.90;;;;;;6216780;23;20008;-71
2022/08/20 03:46:07;;;;;;;2.60;0.70;;;16.40;99.90;;;;;;6243444;23;20330;-71
2022/08/20 03:48:32;;;;;;;0.85;0.50;;;16.50;99.90;;;;;;6216544;23;20016;-71
2022/08/20 03:50:59;;;;;;;0.77;0.50;;;16.40;99.90;;;;;;6243328;23;20018;-71
2022/08/20 03:53:30;;;;;;;0.80;0.60;;;16.50;99.90;;;;;;6241844;23;20023;-71
2022/08/20 03:55:59;;;;;;;0.50;0.40;;;16.40;99.90;;;;;;6215922;23;20381;-71
2022/08/20 03:58:27;;;;;;;0.82;0.50;;;16.40;99.90;;;;;;6214965;23;20016;-71
2022/08/20 04:00:54;;;;;;;1.38;0.50;;;16.30;99.90;;;;;;6216071;23;20016;-71
2022/08/20 04:03:21;;;;;;;1.23;0.40;;;16.30;99.90;;;;;;6215963;23;20012;-71
2022/08/20 04:05:47;;;;;;;0.65;0.50;;;16.30;99.90;;;;;;6216624;23;20066;-71
2022/08/20 04:08:17;;;;;;;;;;;16.40;99.90;;;;;;6215847;23;20027;-71
2022/08/20 04:10:45;;;;;;;1.35;0.50;;;16.40;99.90;;;;;;6215643;23;20372;-71
2022/08/20 04:13:11;;;;;;;1.08;0.60;;;16.40;99.90;;;;;;6243132;23;20086;-71
2022/08/20 04:15:37;;;;;;;0.80;0.50;;;16.30;99.90;;;;;;6216184;23;20030;-72
2022/08/20 04:18:06;;;;;;;0.55;0.40;;;16.20;99.90;;;;;;6215990;23;20087;-71
2022/08/20 04:20:33;;;;;;;0.45;0.40;;;16.20;99.90;;;;;;6243483;23;20415;-71
2022/08/20 04:23:00;;;;;;;0.70;0.45;;;16.20;99.90;;;;;;6215416;23;20434;-70
2022/08/20 04:25:39;;;;;;;0.65;0.40;;;16.20;99.90;;;;;;6191521;23;20028;-70
2022/08/20 04:28:06;;;;;;;0.90;0.50;;;16.00;99.90;;;;;;6214566;23;20020;-70
2022/08/20 04:30:32;;;;;;;0.43;0.35;;;16.10;99.90;;;;;;6215355;23;20023;-70
2022/08/20 04:32:58;;;;;;;1.23;0.65;;;16.10;99.90;;;;;;6215452;23;20016;-70
2022/08/20 04:35:24;;;;;;;;;;;16.10;99.90;;;;;;6216344;23;20026;-70
2022/08/20 04:38:01;;;;;;;0.70;0.50;;;16.10;99.90;;;;;;6215777;23;19942;-71
2022/08/20 04:43:12;;;;;;;1.38;0.50;;;16.10;99.90;;;;;;6215296;23;20028;-71
2022/08/20 04:45:39;;;;;;;0.70;0.60;;;16.20;99.90;;;;;;6190638;23;20268;-71
2022/08/20 04:48:06;;;;;;;0.93;0.60;;;16.10;99.90;;;;;;6214690;23;20016;-71
2022/08/20 04:50:34;;;;;;;1.48;0.60;;;16.10;99.90;;;;;;6242154;23;20016;-71
2022/08/20 04:53:04;;;;;;;0.82;0.60;;;16.20;99.90;;;;;;6214869;23;20020;-71
2022/08/20 04:55:30;;;;;;;1.13;0.50;;;16.20;99.90;;;;;;6215464;23;20043;-71
2022/08/20 04:58:05;;;;;;;1.60;0.60;;;16.10;99.90;;;;;;6214963;23;20016;-71
2022/08/20 05:00:33;;;;;;;0.68;0.40;;;16.00;99.90;;;;;;6215012;23;20012;-71
2022/08/20 05:02:58;;;;;;;2.53;0.60;;;16.00;99.90;;;;;;6189249;23;20023;-71
2022/08/20 05:05:25;;;;;;;0.82;0.60;;;15.90;99.90;;;;;;6189119;23;20058;-71
2022/08/20 05:07:51;;;;;;;0.80;0.50;;;16.00;99.90;;;;;;6241088;23;20559;-71
2022/08/20 05:10:19;;;;;;;1.08;0.60;;;16.00;99.90;;;;;;6216196;23;20024;-70
2022/08/20 05:12:45;;;;;;;;;;;15.90;99.90;;;;;;6242595;23;20020;-71
2022/08/20 05:15:11;;;;;;;1.13;0.70;;;15.80;99.90;;;;;;6189003;23;19919;-71
2022/08/20 05:17:43;;;;;;;1.13;0.40;;;15.90;99.90;;;;;;6214492;23;20040;-72
2022/08/20 05:20:15;;;;;;;0.63;0.38;;;15.80;99.90;;;;;;6189263;23;20051;-72
2022/08/20 05:22:41;;;;;;;1.08;0.60;;;15.80;99.90;;;;;;6214525;23;20023;-72
2022/08/20 05:25:07;;;;;;;0.80;0.40;;;15.90;99.90;;;;;;6215356;23;20016;-72
2022/08/20 05:27:32;;;;;;;;;;;15.90;99.90;;;;;;6214553;23;20360;-72
2022/08/20 05:30:06;;;;;;;0.80;0.50;;;16.00;99.90;;;;;;6213310;23;19950;-71
2022/08/20 05:32:32;;;;;;;1.40;0.60;;;15.90;99.90;;;;;;6214406;23;20016;-72
2022/08/20 05:35:00;;;;;;;0.55;0.45;;;15.80;99.90;;;;;;6214996;23;20024;-71
2022/08/20 05:37:25;;;;;;;0.40;0.40;;;15.80;99.90;;;;;;6241214;23;20090;-72
2022/08/20 05:39:51;;;;;;;0.60;0.57;;;15.80;99.90;;;;;;6214481;23;20043;-71
2022/08/20 05:42:17;;;;;;;1.23;0.60;;;15.70;99.90;;;;;;6214671;23;20016;-71
2022/08/20 05:44:45;;;;;;;0.80;0.40;;;15.70;99.90;;;;;;6215175;23;20020;-71
2022/08/20 05:47:10;;;;;;;0.38;0.38;;;15.70;99.90;;;;;;6213861;23;20024;-71
2022/08/20 05:49:37;;;;;;;0.57;0.40;;;15.70;99.90;;;;;;6215880;23;20142;-71
2022/08/20 05:52:04;;;;;;;1.27;0.63;;;15.80;99.90;;;;;;6190624;23;20135;-72
2022/08/20 05:54:30;;;;;;;0.80;0.60;;;16.00;99.90;;;;;;6242620;23;20016;-72
2022/08/20 05:56:56;;;;;;;;;;;16.00;99.90;;;;;;6243132;23;20083;-71
2022/08/20 05:59:23;;;;;;;0.52;0.40;;;15.90;99.90;;;;;;6190954;23;20239;-71
2022/08/20 06:01:49;;;;;;;0.80;0.50;;;16.10;99.90;;;;;;6215780;23;20023;-71
2022/08/20 06:04:23;;;;;;;;;;;16.10;99.90;;;;;;6216285;23;20012;-71
2022/08/20 06:07:10;;;;;;;1.25;0.40;;;16.10;99.90;;;;;;6215001;23;19961;-72
2022/08/20 06:09:36;;;;;;;1.08;0.40;;;16.30;99.90;;;;;;6215675;23;20453;-71
2022/08/20 06:12:04;;;;;;;1.08;0.52;;;16.40;99.90;;;;;;6215530;23;20020;-71
2022/08/20 06:14:31;;;;;;;1.13;0.35;;;16.50;99.90;;;;;;6214767;23;20016;-70
2022/08/20 06:17:14;;;;;;;0.20;0.20;;;16.50;99.90;;;;;;6215023;23;20016;-70
2022/08/20 06:19:41;;;;;;;0.40;0.20;;;16.80;99.90;;;;;;6215162;23;20047;-71
2022/08/20 06:22:07;;;;;;;1.48;0.40;;;17.00;99.90;;;;;;6213844;23;20016;-70
2022/08/20 06:24:32;;;;;;;3.72;0.65;;;17.20;99.90;;;;;;6214769;23;20012;-70
2022/08/20 06:27:00;;;;;;;1.52;0.70;;;17.50;99.90;;;;;;6215087;23;20026;-70
2022/08/20 06:29:27;;;;;;;3.28;0.77;;;17.70;99.90;;;;;;6215874;23;20020;-70
2022/08/20 06:31:53;;;;;;;2.03;0.60;;;18.10;99.90;;;;;;6214653;23;20047;-71
2022/08/20 06:34:19;;;;;;;;;;;18.60;99.90;;;;;;6189836;23;20323;-70
2022/08/20 06:36:45;;;;;;;0.80;0.50;;;19.30;99.90;;;;;;6214744;23;19922;-71
2022/08/20 06:39:14;;;;;;;1.83;0.80;;;19.90;99.90;;;;;;6215121;23;20450;-72
2022/08/20 06:41:41;;;;;;;2.00;0.47;;;20.40;99.90;;;;;;6215268;23;20012;-70
2022/08/20 06:44:06;;;;;;;2.67;0.90;;;20.60;99.90;;;;;;6216059;23;20066;-71
2022/08/20 06:46:33;;;;;;;;;;;20.40;99.90;;;;;;6241807;23;20024;-71
2022/08/20 06:48:59;;;;;;;1.98;0.80;;;20.00;99.90;;;;;;6216246;23;19961;-71
2022/08/20 06:51:24;;;;;;;;;;;19.80;99.90;;;;;;6217307;23;20016;-71
2022/08/20 06:53:51;;;;;;;2.53;0.80;;;19.50;99.90;;;;;;6191958;23;19954;-71
2022/08/20 06:56:17;;;;;;;2.13;0.70;;;19.50;99.90;;;;;;6243616;23;20016;-71
2022/08/20 06:58:42;;;;;;;;;;;19.30;99.90;;;;;;6216995;23;20061;-70
2022/08/20 07:01:10;;;;;;;1.77;0.60;;;19.30;99.90;;;;;;6243362;23;19915;-71
2022/08/20 07:03:40;;;;;;;2.40;0.82;;;19.50;99.90;;;;;;6216407;23;20020;-70
2022/08/20 07:06:07;;;;;;;2.78;0.80;;;19.70;99.90;;;;;;6214608;23;20445;-71
2022/08/20 07:08:34;;;;;;;1.48;0.60;;;19.90;99.90;;;;;;6217075;23;20043;-71
2022/08/20 07:11:00;;;;;;;2.72;0.70;;;20.30;99.90;;;;;;6216021;23;20503;-70
2022/08/20 07:13:27;;;;;;;2.13;0.90;;;20.70;99.90;;;;;;6216383;23;20015;-70
2022/08/20 07:15:53;;;;;;;2.30;0.63;;;20.90;99.90;;;;;;6191598;23;20023;-70
2022/08/20 07:18:21;;;;;;;2.95;0.60;;;21.20;99.90;;;;;;6241639;23;20022;-70
2022/08/20 07:20:46;;;;;;;3.00;0.65;;;21.60;99.90;;;;;;6215712;23;20044;-71
2022/08/20 07:23:12;;;;;;;0.77;0.40;;;21.70;99.90;;;;;;6215096;23;20078;-71
2022/08/20 07:25:43;;;;;;;0.95;0.47;;;21.80;99.90;;;;;;6216415;23;20012;-71
2022/08/20 07:28:15;;;;;;;3.20;0.68;;;21.90;99.50;;;;;;6216822;23;20095;-71
2022/08/20 07:33:28;;;;;;;1.42;0.50;;;22.10;99.20;;;;;;6243869;23;20424;-70
2022/08/20 07:35:58;;;;;;;2.83;0.55;;;22.30;98.30;;;;;;6216790;23;20031;-71
2022/08/20 07:38:25;;;;;;;2.25;0.68;;;22.20;97.10;;;;;;6216952;23;20055;-71
2022/08/20 07:40:54;;;;;;;1.85;0.57;;;21.80;97.60;;;;;;6216559;23;20016;-71
2022/08/20 07:43:22;;;;;;;2.42;0.73;;;21.30;98.00;;;;;;6217878;23;20027;-71
2022/08/20 07:45:56;;;;;;;2.17;0.55;;;20.80;98.20;;;;;;6192238;23;20020;-71
2022/08/20 07:48:27;;;;;;;2.13;0.50;;;20.80;99.00;;;;;;6216443;23;20022;-71
2022/08/20 07:50:54;;;;;;;1.98;0.50;;;20.60;99.90;;;;;;6216032;23;20020;-71
2022/08/20 07:53:20;;;;;;;1.00;0.47;;;20.70;99.90;;;;;;6243910;23;20019;-70
2022/08/20 07:55:46;;;;;;;1.35;0.60;;;20.90;99.90;;;;;;6214346;23;20073;-71
2022/08/20 07:58:16;;;;;;;2.08;0.60;;;21.00;98.50;;;;;;6241921;23;20047;-72
2022/08/20 08:00:42;;;;;;;1.58;0.47;;;21.00;98.50;;;;;;6243575;23;20091;-72
2022/08/20 08:03:09;;;;;;;1.70;0.65;;;21.30;98.50;;;;;;6244033;23;20046;-72
2022/08/20 08:05:38;;;;;;;1.77;0.70;;;21.40;98.60;;;;;;6244071;23;20016;-72
2022/08/20 08:08:07;;;;;;;1.70;0.60;;;21.60;97.90;;;;;;6216417;23;20103;-72
2022/08/20 08:10:35;;;;;;;3.08;0.90;;;21.80;98.30;;;;;;6216026;23;20350;-72
2022/08/20 08:13:05;;;;;;;3.60;0.85;;;21.60;97.20;;;;;;6216976;23;20019;-71
2022/08/20 08:15:37;;;;;;;2.83;0.75;;;21.70;97.90;;;;;;6215534;23;20020;-71
2022/08/20 08:18:09;;;;;;;1.58;0.60;;;21.80;97.60;;;;;;6243436;23;20085;-72
2022/08/20 08:20:39;;;;;;;1.77;0.68;;;22.10;98.20;;;;;;6216330;23;20012;-72
2022/08/20 08:23:06;;;;;;;2.17;0.52;;;22.30;98.30;;;;;;6215303;23;20020;-73
2022/08/20 08:25:33;;;;;;;2.10;0.77;;;22.30;99.00;;;;;;6215278;23;20020;-73
2022/08/20 08:27:59;;;;;;;1.98;0.75;;;21.90;97.20;;;;;;6215975;23;20066;-73
2022/08/20 08:30:27;;;;;;;2.05;0.60;;;21.60;96.60;;;;;;6216717;23;20334;-73
2022/08/20 08:35:38;;;;;;;1.48;0.40;;;22.20;97.40;;;;;;6193990;23;20020;-73
2022/08/20 08:38:04;;;;;;;1.15;0.50;;;22.20;98.20;;;;;;6191100;23;20182;-73
2022/08/20 08:40:31;;;;;;;1.33;0.40;;;22.20;97.20;;;;;;6243438;23;20066;-73
2022/08/20 08:43:01;;;;;;;2.75;0.80;;;22.20;97.70;;;;;;6216257;23;20383;-73
2022/08/20 08:45:44;;;;;;;2.45;0.65;;;22.20;99.50;;;;;;6191397;23;20062;-73
2022/08/20 08:48:16;;;;;;;1.38;0.47;;;22.30;97.50;;;;;;6242931;23;20016;-73
2022/08/20 08:50:45;;;;;;;1.98;0.60;;;22.20;97.90;;;;;;6216413;23;20012;-73
2022/08/20 08:53:20;;;;;;;1.13;0.40;;;22.30;98.20;;;;;;6215937;23;20012;-73
2022/08/20 08:55:47;;;;;;;4.60;0.75;;;22.20;97.20;;;;;;6190831;23;20024;-74
2022/08/20 08:58:13;;;;;;;2.28;0.60;;;22.30;96.10;;;;;;6216319;23;20012;-73
2022/08/20 09:00:38;;;;;;;1.45;0.60;;;22.30;96.40;;;;;;6216272;23;20023;-73
2022/08/20 09:03:09;;;;;;;1.90;0.68;;;22.20;96.90;;;;;;6215230;23;20043;-73
2022/08/20 09:05:51;;;;;;;3.20;0.90;;;22.30;97.30;;;;;;6215934;23;20015;-73
2022/08/20 09:08:24;;;;;;;1.35;0.50;;;22.40;97.60;;;;;;6215961;23;20028;-73
2022/08/20 09:10:50;;;;;;;2.00;0.68;;;22.30;97.20;;;;;;6242549;23;20016;-73
2022/08/20 09:13:16;;;;;;;2.33;0.50;;;21.90;98.00;;;;;;6216276;23;20165;-73
2022/08/20 09:15:42;;;;;;;1.45;0.60;;;21.60;96.90;;;;;;6215951;23;20096;-72
2022/08/20 09:18:07;;;;;;;1.75;0.73;;;21.60;97.70;;;;;;6215670;23;20008;-73
2022/08/20 09:20:33;;;;;;;1.48;0.57;;;21.70;96.60;;;;;;6240686;23;20015;-73
2022/08/20 09:22:59;;;;;;;2.95;0.70;;;21.90;96.30;;;;;;6190438;23;20178;-73
2022/08/20 09:25:25;;;;;;;2.00;0.60;;;22.10;95.70;;;;;;6189886;23;20449;-73
2022/08/20 09:27:50;;;;;;;2.47;0.70;;;21.80;96.10;;;;;;6215136;23;20090;-73
2022/08/20 09:30:17;;;;;;;2.80;0.70;;;22.00;96.40;;;;;;6216495;23;20016;-74
2022/08/20 09:32:43;;;;;;;1.48;0.68;;;22.20;96.80;;;;;;6242873;23;20020;-73
2022/08/20 09:35:09;;;;;;;2.72;0.70;;;22.40;95.20;;;;;;6243087;23;20280;-73
2022/08/20 09:37:36;;;;;;;1.25;0.50;;;22.50;96.20;;;;;;6215247;23;20012;-74
2022/08/20 09:40:03;;;;;;;3.70;0.80;;;22.60;95.80;;;;;;6216016;23;20012;-73
2022/08/20 09:42:31;;;;;;;3.22;0.80;;;22.20;95.10;;;;;;6216021;23;20074;-73
2022/08/20 09:44:57;;;;;;;3.40;0.90;;;22.20;96.20;;;;;;6242909;23;20421;-73
2022/08/20 09:47:24;;;;;;;1.85;0.70;;;22.20;95.00;;;;;;6215321;23;20049;-72
2022/08/20 09:49:50;;;;;;;2.05;0.75;;;22.50;95.70;;;;;;6215162;23;20012;-72
2022/08/20 09:52:26;;;;;;;1.27;0.68;;;23.10;95.70;;;;;;6189705;23;20012;-73
2022/08/20 09:54:54;;;;;;;;;;;23.60;95.30;;;;;;6216360;23;20012;-73
2022/08/20 09:57:20;;;;;;;1.73;0.68;;;22.80;94.80;;;;;;6190098;23;19915;-73
2022/08/20 09:59:55;;;;;;;1.88;0.60;;;22.60;95.00;;;;;;6215928;23;20016;-73
2022/08/20 10:02:22;;;;;;;4.25;1.02;;;22.40;95.00;;;;;;6242631;23;20445;-73
2022/08/20 10:04:48;;;;;;;3.10;0.70;;;22.40;95.00;;;;;;6215858;23;20020;-73
2022/08/20 10:07:13;;;;;;;1.30;0.52;;;22.90;95.20;;;;;;6241887;23;20008;-74
2022/08/20 10:09:39;;;;;;;2.05;0.57;;;23.10;95.00;;;;;;6214485;23;20092;-73
2022/08/20 10:12:05;;;;;;;1.70;0.60;;;23.30;94.20;;;;;;6215409;23;20078;-73
2022/08/20 10:14:31;;;;;;;1.63;0.50;;;23.50;95.00;;;;;;6189728;23;20016;-72
2022/08/20 10:16:58;;;;;;;1.65;0.60;;;23.60;94.30;;;;;;6216126;23;20468;-73
2022/08/20 10:19:25;;;;;;;1.38;0.50;;;24.00;94.10;;;;;;6191979;23;20035;-72
2022/08/20 10:21:52;;;;;;;1.88;0.57;;;23.90;94.30;;;;;;6216866;23;20107;-73
2022/08/20 10:24:18;;;;;;;1.67;0.75;;;23.70;94.10;;;;;;6244605;23;20465;-73
2022/08/20 10:26:44;;;;;;;2.38;0.60;;;23.40;94.30;;;;;;6217686;23;20047;-72
2022/08/20 10:29:10;;;;;;;2.17;0.75;;;23.50;93.30;;;;;;6217371;23;20541;-72
2022/08/20 10:31:36;;;;;;;1.48;0.68;;;23.30;92.40;;;;;;6191751;23;20051;-72
2022/08/20 10:34:02;;;;;;;0.93;0.50;;;23.10;93.10;;;;;;6217672;23;20396;-72
2022/08/20 10:36:27;;;;;;;1.42;0.70;;;22.90;93.50;;;;;;6192324;23;20020;-73
2022/08/20 10:38:53;;;;;;;1.50;0.60;;;22.60;93.40;;;;;;6217683;23;20020;-72
2022/08/20 10:41:20;;;;;;;2.75;1.00;;;22.60;93.50;;;;;;6217201;23;20020;-73
2022/08/20 10:43:46;;;;;;;3.67;0.85;;;22.40;93.70;;;;;;6191728;23;20015;-74
2022/08/20 10:46:12;;;;;;;2.35;0.70;;;22.70;93.60;;;;;;6216743;23;20027;-74
2022/08/20 10:48:38;;;;;;;1.25;0.47;;;22.70;94.30;;;;;;6217933;23;20023;-74
2022/08/20 10:51:04;;;;;;;1.95;0.65;;;22.50;93.90;;;;;;6215436;23;20020;-73
2022/08/20 10:53:30;;;;;;;1.52;0.57;;;22.40;94.30;;;;;;6192291;23;20651;-73
2022/08/20 10:55:57;;;;;;;2.00;0.57;;;22.60;94.70;;;;;;6215908;23;20016;-73
2022/08/20 10:58:23;;;;;;;2.50;0.88;;;22.60;93.90;;;;;;6216475;23;20012;-73
2022/08/20 11:00:50;;;;;;;3.78;0.80;;;22.60;93.60;;;;;;6215919;23;20023;-73
2022/08/20 11:03:17;;;;;;;4.22;1.30;;;22.80;94.20;;;;;;6215202;23;20337;-73
2022/08/20 11:05:43;;;;;;;3.03;0.90;;;22.80;94.00;;;;;;6214463;23;20023;-73
2022/08/20 11:08:08;;;;;;;2.05;0.82;;;22.70;94.00;;;;;;6212962;23;20027;-74
2022/08/20 11:10:35;;;;;;;2.97;0.90;;;22.60;93.90;;;;;;6212823;23;20083;-72
2022/08/20 11:13:04;;;;;;;1.77;0.60;;;22.40;94.20;;;;;;6188340;23;20027;-73
2022/08/20 11:15:32;;;;;;;1.77;0.70;;;22.90;95.10;;;;;;6240558;23;20016;-74
2022/08/20 11:17:58;;;;;;;2.35;0.80;;;22.90;94.20;;;;;;6213772;23;20043;-73
2022/08/20 11:20:25;;;;;;;3.25;1.30;;;22.80;94.80;;;;;;6213212;23;20143;-74
2022/08/20 11:22:51;;;;;;;1.83;0.73;;;22.60;94.00;;;;;;6188711;23;20016;-74
2022/08/20 11:25:17;;;;;;;4.32;1.10;;;23.00;93.80;;;;;;6240827;23;20067;-74
2022/08/20 11:27:46;;;;;;;1.90;0.80;;;23.00;94.30;;;;;;6215299;23;20056;-80
2022/08/20 11:30:20;;;;;;;2.25;0.68;;;23.00;94.60;;;;;;6244069;23;20446;-80
2022/08/20 11:32:46;;;;;;;1.55;0.57;;;23.20;94.90;;;;;;6244082;23;20019;-79
2022/08/20 11:35:12;;;;;;;2.30;0.80;;;23.50;95.00;;;;;;6191987;23;20016;-80
2022/08/20 11:37:39;;;;;;;2.97;0.88;;;23.80;94.50;;;;;;6191810;23;20014;-80
2022/08/20 11:40:07;;;;;;;2.60;1.00;;;23.80;92.70;;;;;;6192184;23;20020;-80
2022/08/20 11:42:39;;;;;;;2.33;0.70;;;24.00;92.60;;;;;;6192179;23;20022;-79
2022/08/20 11:45:06;;;;;;;1.67;0.73;;;24.30;92.30;;;;;;6190891;23;20016;-80
2022/08/20 11:47:34;;;;;;;2.97;0.73;;;24.80;92.60;;;;;;6214788;23;20047;-80
2022/08/20 11:50:06;;;;;;;0.90;0.50;;;25.20;92.20;;;;;;6215232;23;20020;-79
2022/08/20 11:52:32;;;;;;;1.67;0.73;;;25.50;92.30;;;;;;6217026;23;20433;-79
2022/08/20 11:54:58;;;;;;;2.53;0.75;;;25.90;91.60;;;;;;6216511;23;20020;-81
2022/08/20 11:57:30;;;;;;;1.70;0.55;;;26.10;92.00;;;;;;6190472;23;20020;-78
2022/08/20 11:59:58;;;;;;;1.15;0.50;;;26.20;91.60;;;;;;6189711;23;20020;-79
2022/08/20 12:02:25;;;;;;;2.55;0.70;;;26.10;91.40;;;;;;6216031;23;20732;-79
2022/08/20 12:04:50;;;;;;;3.00;0.77;;;26.20;91.40;;;;;;6216298;23;20023;-80
2022/08/20 12:07:19;;;;;;;1.85;0.82;;;26.00;91.60;;;;;;6166360;23;20012;-79
2022/08/20 12:09:46;;;;;;;2.05;0.73;;;25.70;91.50;;;;;;6215019;23;20028;-79
2022/08/20 12:12:13;;;;;;;2.92;0.90;;;25.10;91.60;;;;;;6215198;23;20091;-80
2022/08/20 12:14:39;;;;;;;1.73;0.60;;;24.60;91.70;;;;;;6213731;23;20059;-79
2022/08/20 12:17:11;;;;;;;3.22;0.90;;;24.70;92.60;;;;;;6215463;23;20016;-79
2022/08/20 12:19:39;;;;;;;1.88;0.70;;;24.60;91.60;;;;;;6215400;23;20039;-79
2022/08/20 12:22:05;;;;;;;2.30;0.90;;;25.20;92.10;;;;;;6215366;23;20024;-79
2022/08/20 12:24:31;;;;;;;3.03;0.80;;;25.60;91.10;;;;;;6215202;23;20016;-81
2022/08/20 12:27:11;;;;;;;3.17;0.90;;;25.50;91.50;;;;;;6189785;23;20416;-80
2022/08/20 12:29:38;;;;;;;2.25;0.80;;;25.30;91.40;;;;;;6215547;23;20051;-79
2022/08/20 12:32:06;;;;;;;1.52;0.70;;;25.00;91.10;;;;;;6215305;23;20358;-79
2022/08/20 12:34:33;;;;;;;3.22;0.95;;;24.70;91.90;;;;;;6215667;23;20012;-79
2022/08/20 12:37:06;;;;;;;4.18;1.30;;;24.50;91.90;;;;;;6215261;23;20054;-80
2022/08/20 12:39:33;;;;;;;2.92;0.80;;;24.80;91.60;;;;;;6215255;23;20012;-79
2022/08/20 12:42:01;;;;;;;2.40;0.80;;;25.20;91.30;;;;;;6194420;23;20016;-80
2022/08/20 12:44:31;;;;;;;2.10;0.80;;;25.20;91.00;;;;;;6216115;23;20031;-79
2022/08/20 12:47:12;;;;;;;1.52;0.63;;;24.80;90.30;;;;;;6215666;23;20016;-80
2022/08/20 12:49:46;;;;;;;2.35;0.98;;;24.70;91.40;;;;;;6215878;23;20101;-80
2022/08/20 12:52:13;;;;;;;4.07;1.10;;;24.70;91.10;;;;;;6215767;23;20112;-80
2022/08/20 12:54:39;;;;;;;2.50;1.02;;;24.80;91.00;;;;;;6214764;23;20020;-80
2022/08/20 12:57:05;;;;;;;1.33;0.82;;;25.00;91.10;;;;;;6189155;23;20031;-80
2022/08/20 12:59:32;;;;;;;2.35;0.98;;;25.30;91.80;;;;;;6214053;23;20017;-80
2022/08/20 13:01:58;;;;;;;1.35;0.70;;;25.40;91.20;;;;;;6214391;23;20318;-79
2022/08/20 13:04:24;;;;;;;2.97;0.85;;;25.70;91.60;;;;;;6241257;23;20023;-79